sensor_id;sensor_type;location;lat;lon;timestamp;P1;durP1;ratioP1;P2;durP2;ratioP2
76576;SDS011;65441;44.748;37.600;2023-02-01T00:02:02;10.40;;;4.00;;
76576;SDS011;65441;44.748;37.600;2023-02-01T00:04:36;13.60;;;4.18;;
76576;SDS011;65441;44.748;37.600;2023-02-01T00:07:10;10.38;;;4.40;;
76576;SDS011;65441;44.748;37.600;2023-02-01T00:09:43;9.75;;;3.92;;
76576;SDS011;65441;44.748;37.600;2023-02-01T00:12:15;8.75;;;3.42;;
76576;SDS011;65441;44.748;37.600;2023-02-01T00:14:48;10.23;;;3.90;;
76576;SDS011;65441;44.748;37.600;2023-02-01T00:17:20;12.20;;;4.30;;
76576;SDS011;65441;44.748;37.600;2023-02-01T00:19:57;11.18;;;3.78;;
76576;SDS011;65441;44.748;37.600;2023-02-01T00:22:31;10.13;;;3.40;;
76576;SDS011;65441;44.748;37.600;2023-02-01T00:25:03;11.13;;;3.83;;
76576;SDS011;65441;44.748;37.600;2023-02-01T00:27:38;9.00;;;3.17;;
76576;SDS011;65441;44.748;37.600;2023-02-01T00:30:13;8.82;;;3.13;;
76576;SDS011;65441;44.748;37.600;2023-02-01T00:32:46;10.25;;;3.35;;
76576;SDS011;65441;44.748;37.600;2023-02-01T00:35:21;12.40;;;3.53;;
76576;SDS011;65441;44.748;37.600;2023-02-01T00:37:52;10.70;;;3.70;;
76576;SDS011;65441;44.748;37.600;2023-02-01T00:40:27;16.00;;;4.32;;
76576;SDS011;65441;44.748;37.600;2023-02-01T00:43:06;10.50;;;4.18;;
76576;SDS011;65441;44.748;37.600;2023-02-01T00:45:39;11.68;;;4.63;;
76576;SDS011;65441;44.748;37.600;2023-02-01T00:48:13;10.38;;;4.05;;
76576;SDS011;65441;44.748;37.600;2023-02-01T00:50:47;10.95;;;4.22;;
76576;SDS011;65441;44.748;37.600;2023-02-01T00:53:23;9.70;;;3.45;;
76576;SDS011;65441;44.748;37.600;2023-02-01T00:55:58;11.27;;;3.75;;
76576;SDS011;65441;44.748;37.600;2023-02-01T00:58:30;11.30;;;3.72;;
76576;SDS011;65441;44.748;37.600;2023-02-01T01:01:06;10.80;;;3.97;;
76576;SDS011;65441;44.748;37.600;2023-02-01T01:03:46;9.57;;;3.45;;
76576;SDS011;65441;44.748;37.600;2023-02-01T01:06:29;11.15;;;4.05;;
76576;SDS011;65441;44.748;37.600;2023-02-01T01:09:00;11.57;;;4.03;;
76576;SDS011;65441;44.748;37.600;2023-02-01T01:11:33;10.48;;;3.40;;
76576;SDS011;65441;44.748;37.600;2023-02-01T01:14:07;9.50;;;3.15;;
76576;SDS011;65441;44.748;37.600;2023-02-01T01:16:41;8.65;;;3.00;;
76576;SDS011;65441;44.748;37.600;2023-02-01T01:19:17;9.90;;;3.30;;
76576;SDS011;65441;44.748;37.600;2023-02-01T01:21:52;9.68;;;3.28;;
76576;SDS011;65441;44.748;37.600;2023-02-01T01:24:25;8.65;;;3.05;;
76576;SDS011;65441;44.748;37.600;2023-02-01T01:26:57;10.55;;;3.40;;
76576;SDS011;65441;44.748;37.600;2023-02-01T01:29:29;8.98;;;2.63;;
76576;SDS011;65441;44.748;37.600;2023-02-01T01:32:02;7.68;;;3.33;;
76576;SDS011;65441;44.748;37.600;2023-02-01T01:34:34;8.27;;;3.15;;
76576;SDS011;65441;44.748;37.600;2023-02-01T01:37:10;10.80;;;2.72;;
76576;SDS011;65441;44.748;37.600;2023-02-01T01:42:13;11.25;;;3.13;;
76576;SDS011;65441;44.748;37.600;2023-02-01T01:45:01;10.20;;;3.70;;
76576;SDS011;65441;44.748;37.600;2023-02-01T01:47:36;13.02;;;4.15;;
76576;SDS011;65441;44.748;37.600;2023-02-01T01:50:15;12.15;;;4.20;;
76576;SDS011;65441;44.748;37.600;2023-02-01T01:52:53;13.68;;;4.65;;
76576;SDS011;65441;44.748;37.600;2023-02-01T01:55:29;9.13;;;3.67;;
76576;SDS011;65441;44.748;37.600;2023-02-01T01:58:21;11.02;;;3.80;;
76576;SDS011;65441;44.748;37.600;2023-02-01T02:00:56;9.80;;;3.55;;
76576;SDS011;65441;44.748;37.600;2023-02-01T02:03:33;8.65;;;3.35;;
76576;SDS011;65441;44.748;37.600;2023-02-01T02:06:04;7.85;;;2.90;;
76576;SDS011;65441;44.748;37.600;2023-02-01T02:08:45;8.48;;;3.03;;
76576;SDS011;65441;44.748;37.600;2023-02-01T02:11:18;8.30;;;2.78;;
76576;SDS011;65441;44.748;37.600;2023-02-01T02:13:53;7.70;;;2.63;;
76576;SDS011;65441;44.748;37.600;2023-02-01T02:19:36;7.30;;;2.45;;
76576;SDS011;65441;44.748;37.600;2023-02-01T02:22:42;7.30;;;2.75;;
76576;SDS011;65441;44.748;37.600;2023-02-01T02:25:57;10.43;;;3.47;;
76576;SDS011;65441;44.748;37.600;2023-02-01T02:29:06;8.80;;;3.13;;
76576;SDS011;65441;44.748;37.600;2023-02-01T02:32:12;7.00;;;2.30;;
76576;SDS011;65441;44.748;37.600;2023-02-01T02:35:05;8.57;;;3.00;;
76576;SDS011;65441;44.748;37.600;2023-02-01T02:37:48;8.55;;;2.63;;
76576;SDS011;65441;44.748;37.600;2023-02-01T02:40:30;10.35;;;3.17;;
76576;SDS011;65441;44.748;37.600;2023-02-01T02:43:09;8.52;;;3.05;;
76576;SDS011;65441;44.748;37.600;2023-02-01T02:46:02;9.07;;;3.08;;
76576;SDS011;65441;44.748;37.600;2023-02-01T02:48:55;8.27;;;3.35;;
76576;SDS011;65441;44.748;37.600;2023-02-01T02:51:38;8.32;;;2.92;;
76576;SDS011;65441;44.748;37.600;2023-02-01T02:54:35;10.30;;;3.08;;
76576;SDS011;65441;44.748;37.600;2023-02-01T02:57:19;11.07;;;3.20;;
76576;SDS011;65441;44.748;37.600;2023-02-01T03:00:13;10.55;;;2.90;;
76576;SDS011;65441;44.748;37.600;2023-02-01T03:03:10;8.95;;;2.72;;
76576;SDS011;65441;44.748;37.600;2023-02-01T03:06:00;7.40;;;2.63;;
76576;SDS011;65441;44.748;37.600;2023-02-01T03:08:36;7.50;;;2.72;;
76576;SDS011;65441;44.748;37.600;2023-02-01T03:11:29;8.05;;;2.38;;
76576;SDS011;65441;44.748;37.600;2023-02-01T03:14:21;8.27;;;2.78;;
76576;SDS011;65441;44.748;37.600;2023-02-01T03:17:08;8.82;;;2.88;;
76576;SDS011;65441;44.748;37.600;2023-02-01T03:19:55;9.65;;;3.00;;
76576;SDS011;65441;44.748;37.600;2023-02-01T03:22:34;8.60;;;2.90;;
76576;SDS011;65441;44.748;37.600;2023-02-01T03:25:10;8.27;;;2.88;;
76576;SDS011;65441;44.748;37.600;2023-02-01T03:27:52;12.73;;;3.00;;
76576;SDS011;65441;44.748;37.600;2023-02-01T03:30:31;10.65;;;2.72;;
76576;SDS011;65441;44.748;37.600;2023-02-01T03:33:07;9.50;;;3.05;;
76576;SDS011;65441;44.748;37.600;2023-02-01T03:35:57;10.35;;;3.10;;
76576;SDS011;65441;44.748;37.600;2023-02-01T03:38:36;8.90;;;2.85;;
76576;SDS011;65441;44.748;37.600;2023-02-01T03:41:17;7.72;;;2.70;;
76576;SDS011;65441;44.748;37.600;2023-02-01T03:43:54;9.20;;;3.25;;
76576;SDS011;65441;44.748;37.600;2023-02-01T03:46:30;7.18;;;2.53;;
76576;SDS011;65441;44.748;37.600;2023-02-01T03:49:18;7.65;;;2.50;;
76576;SDS011;65441;44.748;37.600;2023-02-01T03:51:56;9.13;;;2.75;;
76576;SDS011;65441;44.748;37.600;2023-02-01T03:54:33;8.13;;;2.50;;
76576;SDS011;65441;44.748;37.600;2023-02-01T03:57:09;5.95;;;1.70;;
76576;SDS011;65441;44.748;37.600;2023-02-01T03:59:50;6.60;;;1.95;;
76576;SDS011;65441;44.748;37.600;2023-02-01T04:02:26;6.88;;;2.05;;
76576;SDS011;65441;44.748;37.600;2023-02-01T04:04:58;5.75;;;2.00;;
76576;SDS011;65441;44.748;37.600;2023-02-01T04:07:32;5.63;;;1.95;;
76576;SDS011;65441;44.748;37.600;2023-02-01T04:10:07;6.65;;;1.73;;
76576;SDS011;65441;44.748;37.600;2023-02-01T04:12:45;8.30;;;2.25;;
76576;SDS011;65441;44.748;37.600;2023-02-01T04:17:51;6.28;;;2.03;;
76576;SDS011;65441;44.748;37.600;2023-02-01T04:23:07;6.80;;;1.90;;
76576;SDS011;65441;44.748;37.600;2023-02-01T04:25:43;6.32;;;2.38;;
76576;SDS011;65441;44.748;37.600;2023-02-01T04:28:17;8.43;;;2.38;;
76576;SDS011;65441;44.748;37.600;2023-02-01T04:30:49;6.95;;;2.42;;
76576;SDS011;65441;44.748;37.600;2023-02-01T04:33:20;5.18;;;1.83;;
76576;SDS011;65441;44.748;37.600;2023-02-01T04:35:51;6.53;;;2.20;;
76576;SDS011;65441;44.748;37.600;2023-02-01T04:38:25;5.13;;;1.63;;
76576;SDS011;65441;44.748;37.600;2023-02-01T04:41:01;6.85;;;2.20;;
76576;SDS011;65441;44.748;37.600;2023-02-01T04:43:35;5.18;;;1.80;;
76576;SDS011;65441;44.748;37.600;2023-02-01T04:46:06;5.10;;;1.50;;
76576;SDS011;65441;44.748;37.600;2023-02-01T04:48:38;5.35;;;1.70;;
76576;SDS011;65441;44.748;37.600;2023-02-01T04:51:13;5.75;;;1.55;;
76576;SDS011;65441;44.748;37.600;2023-02-01T04:53:48;7.10;;;1.17;;
76576;SDS011;65441;44.748;37.600;2023-02-01T04:56:24;3.38;;;1.08;;
76576;SDS011;65441;44.748;37.600;2023-02-01T04:58:58;5.22;;;1.50;;
76576;SDS011;65441;44.748;37.600;2023-02-01T05:01:29;5.00;;;1.38;;
76576;SDS011;65441;44.748;37.600;2023-02-01T05:04:08;7.47;;;1.65;;
76576;SDS011;65441;44.748;37.600;2023-02-01T05:06:41;4.50;;;1.13;;
76576;SDS011;65441;44.748;37.600;2023-02-01T05:09:11;5.40;;;1.48;;
76576;SDS011;65441;44.748;37.600;2023-02-01T05:11:44;6.38;;;1.48;;
76576;SDS011;65441;44.748;37.600;2023-02-01T05:14:35;6.75;;;1.95;;
76576;SDS011;65441;44.748;37.600;2023-02-01T05:17:08;6.60;;;1.73;;
76576;SDS011;65441;44.748;37.600;2023-02-01T05:19:41;7.03;;;2.00;;
76576;SDS011;65441;44.748;37.600;2023-02-01T05:22:13;4.97;;;1.70;;
76576;SDS011;65441;44.748;37.600;2023-02-01T05:24:46;5.78;;;1.75;;
76576;SDS011;65441;44.748;37.600;2023-02-01T05:27:16;5.32;;;1.67;;
76576;SDS011;65441;44.748;37.600;2023-02-01T05:29:52;10.30;;;2.17;;
76576;SDS011;65441;44.748;37.600;2023-02-01T05:32:25;7.43;;;1.90;;
76576;SDS011;65441;44.748;37.600;2023-02-01T05:35:02;4.53;;;1.95;;
76576;SDS011;65441;44.748;37.600;2023-02-01T05:37:34;7.78;;;2.55;;
76576;SDS011;65441;44.748;37.600;2023-02-01T05:40:11;7.90;;;2.38;;
76576;SDS011;65441;44.748;37.600;2023-02-01T05:42:51;5.85;;;2.03;;
76576;SDS011;65441;44.748;37.600;2023-02-01T05:45:24;5.68;;;1.83;;
76576;SDS011;65441;44.748;37.600;2023-02-01T05:47:53;6.10;;;1.88;;
76576;SDS011;65441;44.748;37.600;2023-02-01T05:50:27;5.32;;;1.95;;
76576;SDS011;65441;44.748;37.600;2023-02-01T05:52:58;8.48;;;2.15;;
76576;SDS011;65441;44.748;37.600;2023-02-01T05:55:30;6.70;;;2.38;;
76576;SDS011;65441;44.748;37.600;2023-02-01T05:58:01;7.32;;;2.22;;
76576;SDS011;65441;44.748;37.600;2023-02-01T06:00:32;5.32;;;1.88;;
76576;SDS011;65441;44.748;37.600;2023-02-01T06:03:03;5.43;;;2.00;;
76576;SDS011;65441;44.748;37.600;2023-02-01T06:05:35;7.38;;;2.63;;
76576;SDS011;65441;44.748;37.600;2023-02-01T06:08:08;5.53;;;1.90;;
76576;SDS011;65441;44.748;37.600;2023-02-01T06:10:38;6.10;;;2.22;;
76576;SDS011;65441;44.748;37.600;2023-02-01T06:13:07;6.90;;;2.33;;
76576;SDS011;65441;44.748;37.600;2023-02-01T06:15:39;9.98;;;2.25;;
76576;SDS011;65441;44.748;37.600;2023-02-01T06:18:10;8.45;;;2.20;;
76576;SDS011;65441;44.748;37.600;2023-02-01T06:20:44;12.93;;;2.70;;
76576;SDS011;65441;44.748;37.600;2023-02-01T06:23:17;6.10;;;1.90;;
76576;SDS011;65441;44.748;37.600;2023-02-01T06:25:48;11.35;;;2.28;;
76576;SDS011;65441;44.748;37.600;2023-02-01T06:28:23;6.40;;;2.25;;
76576;SDS011;65441;44.748;37.600;2023-02-01T06:30:56;9.52;;;3.97;;
76576;SDS011;65441;44.748;37.600;2023-02-01T06:33:33;8.60;;;2.60;;
76576;SDS011;65441;44.748;37.600;2023-02-01T06:36:03;7.03;;;2.90;;
76576;SDS011;65441;44.748;37.600;2023-02-01T06:38:36;7.13;;;2.40;;
76576;SDS011;65441;44.748;37.600;2023-02-01T06:41:07;6.25;;;2.40;;
76576;SDS011;65441;44.748;37.600;2023-02-01T06:43:37;7.40;;;2.50;;
76576;SDS011;65441;44.748;37.600;2023-02-01T06:46:12;7.78;;;2.67;;
76576;SDS011;65441;44.748;37.600;2023-02-01T06:48:41;7.05;;;2.40;;
76576;SDS011;65441;44.748;37.600;2023-02-01T06:51:21;6.68;;;2.38;;
76576;SDS011;65441;44.748;37.600;2023-02-01T06:53:51;6.95;;;2.83;;
76576;SDS011;65441;44.748;37.600;2023-02-01T06:56:20;6.95;;;2.83;;
76576;SDS011;65441;44.748;37.600;2023-02-01T06:58:49;6.53;;;2.45;;
76576;SDS011;65441;44.748;37.600;2023-02-01T07:01:19;6.97;;;2.65;;
76576;SDS011;65441;44.748;37.600;2023-02-01T07:03:49;7.05;;;2.88;;
76576;SDS011;65441;44.748;37.600;2023-02-01T07:06:18;5.43;;;2.10;;
76576;SDS011;65441;44.748;37.600;2023-02-01T07:08:48;7.63;;;1.77;;
76576;SDS011;65441;44.748;37.600;2023-02-01T07:11:18;5.82;;;2.10;;
76576;SDS011;65441;44.748;37.600;2023-02-01T07:13:47;5.32;;;1.60;;
76576;SDS011;65441;44.748;37.600;2023-02-01T07:16:18;4.72;;;1.75;;
76576;SDS011;65441;44.748;37.600;2023-02-01T07:18:49;4.70;;;1.65;;
76576;SDS011;65441;44.748;37.600;2023-02-01T07:21:19;5.10;;;1.65;;
76576;SDS011;65441;44.748;37.600;2023-02-01T07:23:48;5.15;;;1.55;;
76576;SDS011;65441;44.748;37.600;2023-02-01T07:26:16;5.15;;;1.50;;
76576;SDS011;65441;44.748;37.600;2023-02-01T07:28:45;4.68;;;1.60;;
76576;SDS011;65441;44.748;37.600;2023-02-01T07:31:15;5.82;;;1.70;;
76576;SDS011;65441;44.748;37.600;2023-02-01T07:33:48;5.80;;;1.80;;
76576;SDS011;65441;44.748;37.600;2023-02-01T07:36:19;3.88;;;1.40;;
76576;SDS011;65441;44.748;37.600;2023-02-01T07:38:48;4.07;;;1.50;;
76576;SDS011;65441;44.748;37.600;2023-02-01T07:41:19;7.25;;;1.67;;
76576;SDS011;65441;44.748;37.600;2023-02-01T07:43:48;5.47;;;1.80;;
76576;SDS011;65441;44.748;37.600;2023-02-01T07:46:22;5.15;;;1.73;;
76576;SDS011;65441;44.748;37.600;2023-02-01T07:48:52;5.78;;;1.60;;
76576;SDS011;65441;44.748;37.600;2023-02-01T07:51:21;5.05;;;1.27;;
76576;SDS011;65441;44.748;37.600;2023-02-01T07:53:50;5.05;;;1.60;;
76576;SDS011;65441;44.748;37.600;2023-02-01T07:56:19;4.07;;;1.40;;
76576;SDS011;65441;44.748;37.600;2023-02-01T07:58:49;4.88;;;1.33;;
76576;SDS011;65441;44.748;37.600;2023-02-01T08:01:20;2.83;;;1.05;;
76576;SDS011;65441;44.748;37.600;2023-02-01T08:03:51;4.70;;;1.58;;
76576;SDS011;65441;44.748;37.600;2023-02-01T08:06:22;4.70;;;1.60;;
76576;SDS011;65441;44.748;37.600;2023-02-01T08:08:52;6.25;;;1.75;;
76576;SDS011;65441;44.748;37.600;2023-02-01T08:11:21;4.07;;;1.48;;
76576;SDS011;65441;44.748;37.600;2023-02-01T08:13:53;4.38;;;1.40;;
76576;SDS011;65441;44.748;37.600;2023-02-01T08:16:22;6.80;;;1.60;;
76576;SDS011;65441;44.748;37.600;2023-02-01T08:18:53;3.85;;;1.08;;
76576;SDS011;65441;44.748;37.600;2023-02-01T08:21:23;5.18;;;1.65;;
76576;SDS011;65441;44.748;37.600;2023-02-01T08:23:53;4.63;;;1.45;;
76576;SDS011;65441;44.748;37.600;2023-02-01T08:26:23;4.45;;;1.48;;
76576;SDS011;65441;44.748;37.600;2023-02-01T08:28:57;4.50;;;1.40;;
76576;SDS011;65441;44.748;37.600;2023-02-01T08:31:27;4.07;;;1.40;;
76576;SDS011;65441;44.748;37.600;2023-02-01T08:33:59;4.55;;;1.67;;
76576;SDS011;65441;44.748;37.600;2023-02-01T08:36:30;4.63;;;1.38;;
76576;SDS011;65441;44.748;37.600;2023-02-01T08:39:00;4.00;;;1.25;;
76576;SDS011;65441;44.748;37.600;2023-02-01T08:41:32;4.07;;;1.25;;
76576;SDS011;65441;44.748;37.600;2023-02-01T08:44:01;4.25;;;1.55;;
76576;SDS011;65441;44.748;37.600;2023-02-01T08:46:30;3.63;;;1.27;;
76576;SDS011;65441;44.748;37.600;2023-02-01T08:49:00;6.55;;;1.30;;
76576;SDS011;65441;44.748;37.600;2023-02-01T08:51:28;4.28;;;1.40;;
76576;SDS011;65441;44.748;37.600;2023-02-01T08:53:57;4.45;;;1.27;;
76576;SDS011;65441;44.748;37.600;2023-02-01T08:56:27;3.10;;;1.00;;
76576;SDS011;65441;44.748;37.600;2023-02-01T08:58:56;4.10;;;1.42;;
76576;SDS011;65441;44.748;37.600;2023-02-01T09:01:30;3.05;;;1.10;;
76576;SDS011;65441;44.748;37.600;2023-02-01T09:04:01;5.13;;;1.65;;
76576;SDS011;65441;44.748;37.600;2023-02-01T09:06:30;3.42;;;1.23;;
76576;SDS011;65441;44.748;37.600;2023-02-01T09:09:01;5.88;;;1.65;;
76576;SDS011;65441;44.748;37.600;2023-02-01T09:11:30;2.85;;;0.73;;
76576;SDS011;65441;44.748;37.600;2023-02-01T09:13:59;4.15;;;1.08;;
76576;SDS011;65441;44.748;37.600;2023-02-01T09:16:28;4.85;;;1.52;;
76576;SDS011;65441;44.748;37.600;2023-02-01T09:18:57;4.38;;;1.40;;
76576;SDS011;65441;44.748;37.600;2023-02-01T09:21:27;3.40;;;1.27;;
76576;SDS011;65441;44.748;37.600;2023-02-01T09:23:56;4.75;;;1.75;;
76576;SDS011;65441;44.748;37.600;2023-02-01T09:26:25;4.25;;;1.55;;
76576;SDS011;65441;44.748;37.600;2023-02-01T09:28:54;4.72;;;1.48;;
76576;SDS011;65441;44.748;37.600;2023-02-01T09:31:23;4.00;;;1.20;;
76576;SDS011;65441;44.748;37.600;2023-02-01T09:33:52;3.72;;;1.25;;
76576;SDS011;65441;44.748;37.600;2023-02-01T09:36:20;4.88;;;1.52;;
76576;SDS011;65441;44.748;37.600;2023-02-01T09:38:51;2.38;;;0.80;;
76576;SDS011;65441;44.748;37.600;2023-02-01T09:41:24;3.15;;;1.10;;
76576;SDS011;65441;44.748;37.600;2023-02-01T09:44:02;4.45;;;1.30;;
76576;SDS011;65441;44.748;37.600;2023-02-01T09:46:36;4.20;;;1.20;;
76576;SDS011;65441;44.748;37.600;2023-02-01T09:49:08;4.43;;;1.27;;
76576;SDS011;65441;44.748;37.600;2023-02-01T09:51:42;3.28;;;1.10;;
76576;SDS011;65441;44.748;37.600;2023-02-01T09:54:15;3.22;;;1.17;;
76576;SDS011;65441;44.748;37.600;2023-02-01T09:56:47;4.65;;;1.27;;
76576;SDS011;65441;44.748;37.600;2023-02-01T09:59:23;5.55;;;1.60;;
76576;SDS011;65441;44.748;37.600;2023-02-01T10:01:57;4.25;;;1.40;;
76576;SDS011;65441;44.748;37.600;2023-02-01T10:04:26;6.57;;;1.50;;
76576;SDS011;65441;44.748;37.600;2023-02-01T10:06:58;7.30;;;1.70;;
76576;SDS011;65441;44.748;37.600;2023-02-01T10:09:44;5.70;;;1.40;;
76576;SDS011;65441;44.748;37.600;2023-02-01T10:12:36;4.22;;;1.20;;
76576;SDS011;65441;44.748;37.600;2023-02-01T10:15:22;4.22;;;1.15;;
76576;SDS011;65441;44.748;37.600;2023-02-01T10:17:58;7.63;;;3.00;;
76576;SDS011;65441;44.748;37.600;2023-02-01T10:20:36;7.13;;;3.10;;
76576;SDS011;65441;44.748;37.600;2023-02-01T10:23:22;7.03;;;2.58;;
76576;SDS011;65441;44.748;37.600;2023-02-01T10:26:12;5.80;;;1.95;;
76576;SDS011;65441;44.748;37.600;2023-02-01T10:28:49;5.45;;;1.85;;
76576;SDS011;65441;44.748;37.600;2023-02-01T10:31:20;5.45;;;1.70;;
76576;SDS011;65441;44.748;37.600;2023-02-01T10:33:52;4.60;;;1.50;;
76576;SDS011;65441;44.748;37.600;2023-02-01T10:36:26;4.50;;;1.17;;
76576;SDS011;65441;44.748;37.600;2023-02-01T10:38:57;6.35;;;1.45;;
76576;SDS011;65441;44.748;37.600;2023-02-01T10:41:30;4.13;;;0.95;;
76576;SDS011;65441;44.748;37.600;2023-02-01T10:44:02;3.58;;;1.17;;
76576;SDS011;65441;44.748;37.600;2023-02-01T10:46:33;4.57;;;1.50;;
76576;SDS011;65441;44.748;37.600;2023-02-01T10:49:03;7.93;;;1.80;;
76576;SDS011;65441;44.748;37.600;2023-02-01T10:51:38;3.55;;;1.30;;
76576;SDS011;65441;44.748;37.600;2023-02-01T10:54:14;5.25;;;1.33;;
76576;SDS011;65441;44.748;37.600;2023-02-01T10:56:48;5.55;;;1.30;;
76576;SDS011;65441;44.748;37.600;2023-02-01T10:59:20;5.60;;;1.48;;
76576;SDS011;65441;44.748;37.600;2023-02-01T11:01:58;4.72;;;1.45;;
76576;SDS011;65441;44.748;37.600;2023-02-01T11:04:30;4.55;;;1.70;;
76576;SDS011;65441;44.748;37.600;2023-02-01T11:07:07;5.22;;;1.75;;
76576;SDS011;65441;44.748;37.600;2023-02-01T11:09:48;4.40;;;1.60;;
76576;SDS011;65441;44.748;37.600;2023-02-01T11:12:25;4.10;;;1.60;;
76576;SDS011;65441;44.748;37.600;2023-02-01T11:14:56;3.72;;;1.45;;
76576;SDS011;65441;44.748;37.600;2023-02-01T11:17:33;5.40;;;2.03;;
76576;SDS011;65441;44.748;37.600;2023-02-01T11:20:06;6.15;;;2.22;;
76576;SDS011;65441;44.748;37.600;2023-02-01T11:22:45;5.57;;;2.03;;
76576;SDS011;65441;44.748;37.600;2023-02-01T11:25:16;7.00;;;2.53;;
76576;SDS011;65441;44.748;37.600;2023-02-01T11:27:47;7.60;;;2.70;;
76576;SDS011;65441;44.748;37.600;2023-02-01T11:30:17;7.55;;;2.97;;
76576;SDS011;65441;44.748;37.600;2023-02-01T11:32:50;9.60;;;3.60;;
76576;SDS011;65441;44.748;37.600;2023-02-01T11:35:20;9.05;;;3.83;;
76576;SDS011;65441;44.748;37.600;2023-02-01T11:37:52;9.10;;;3.90;;
76576;SDS011;65441;44.748;37.600;2023-02-01T11:40:28;8.93;;;3.25;;
76576;SDS011;65441;44.748;37.600;2023-02-01T11:43:11;9.32;;;4.18;;
76576;SDS011;65441;44.748;37.600;2023-02-01T11:45:53;11.20;;;4.75;;
76576;SDS011;65441;44.748;37.600;2023-02-01T11:48:23;14.95;;;4.95;;
76576;SDS011;65441;44.748;37.600;2023-02-01T11:50:57;11.52;;;4.30;;
76576;SDS011;65441;44.748;37.600;2023-02-01T11:53:55;10.10;;;4.20;;
76576;SDS011;65441;44.748;37.600;2023-02-01T11:56:32;9.25;;;3.97;;
76576;SDS011;65441;44.748;37.600;2023-02-01T11:59:11;10.68;;;4.70;;
76576;SDS011;65441;44.748;37.600;2023-02-01T12:01:56;13.57;;;5.55;;
76576;SDS011;65441;44.748;37.600;2023-02-01T12:04:40;12.98;;;5.43;;
76576;SDS011;65441;44.748;37.600;2023-02-01T12:07:26;17.73;;;6.75;;
76576;SDS011;65441;44.748;37.600;2023-02-01T12:10:05;18.35;;;6.88;;
76576;SDS011;65441;44.748;37.600;2023-02-01T12:12:48;19.25;;;6.45;;
76576;SDS011;65441;44.748;37.600;2023-02-01T12:15:27;14.60;;;6.82;;
76576;SDS011;65441;44.748;37.600;2023-02-01T12:18:06;16.60;;;6.85;;
76576;SDS011;65441;44.748;37.600;2023-02-01T12:21:11;17.48;;;6.15;;
76576;SDS011;65441;44.748;37.600;2023-02-01T12:26:53;17.70;;;7.35;;
76576;SDS011;65441;44.748;37.600;2023-02-01T12:29:42;16.17;;;7.38;;
76576;SDS011;65441;44.748;37.600;2023-02-01T12:32:29;16.63;;;6.55;;
76576;SDS011;65441;44.748;37.600;2023-02-01T12:35:13;23.20;;;6.95;;
76576;SDS011;65441;44.748;37.600;2023-02-01T12:37:57;19.85;;;7.80;;
76576;SDS011;65441;44.748;37.600;2023-02-01T12:40:39;19.77;;;7.63;;
76576;SDS011;65441;44.748;37.600;2023-02-01T12:43:19;19.33;;;7.28;;
76576;SDS011;65441;44.748;37.600;2023-02-01T12:45:55;16.30;;;6.72;;
76576;SDS011;65441;44.748;37.600;2023-02-01T12:48:30;19.10;;;7.10;;
76576;SDS011;65441;44.748;37.600;2023-02-01T12:51:04;20.80;;;7.20;;
76576;SDS011;65441;44.748;37.600;2023-02-01T12:53:45;17.02;;;6.68;;
76576;SDS011;65441;44.748;37.600;2023-02-01T12:56:20;20.17;;;7.63;;
76576;SDS011;65441;44.748;37.600;2023-02-01T12:58:55;17.17;;;7.53;;
76576;SDS011;65441;44.748;37.600;2023-02-01T13:01:33;17.35;;;7.40;;
76576;SDS011;65441;44.748;37.600;2023-02-01T13:04:09;19.70;;;8.57;;
76576;SDS011;65441;44.748;37.600;2023-02-01T13:06:41;20.02;;;7.45;;
76576;SDS011;65441;44.748;37.600;2023-02-01T13:09:17;16.20;;;6.93;;
76576;SDS011;65441;44.748;37.600;2023-02-01T13:11:51;17.83;;;7.65;;
76576;SDS011;65441;44.748;37.600;2023-02-01T13:14:28;16.85;;;6.97;;
76576;SDS011;65441;44.748;37.600;2023-02-01T13:17:04;18.13;;;7.38;;
76576;SDS011;65441;44.748;37.600;2023-02-01T13:19:43;19.02;;;6.43;;
76576;SDS011;65441;44.748;37.600;2023-02-01T13:22:17;16.40;;;6.53;;
76576;SDS011;65441;44.748;37.600;2023-02-01T13:24:52;16.67;;;7.10;;
76576;SDS011;65441;44.748;37.600;2023-02-01T13:27:26;20.35;;;7.60;;
76576;SDS011;65441;44.748;37.600;2023-02-01T13:29:58;20.13;;;7.38;;
76576;SDS011;65441;44.748;37.600;2023-02-01T13:32:33;18.00;;;6.88;;
76576;SDS011;65441;44.748;37.600;2023-02-01T13:38:09;15.00;;;6.05;;
76576;SDS011;65441;44.748;37.600;2023-02-01T13:40:56;16.42;;;6.22;;
76576;SDS011;65441;44.748;37.600;2023-02-01T13:43:36;16.35;;;6.68;;
76576;SDS011;65441;44.748;37.600;2023-02-01T13:46:09;16.48;;;6.68;;
76576;SDS011;65441;44.748;37.600;2023-02-01T13:48:45;16.55;;;6.38;;
76576;SDS011;65441;44.748;37.600;2023-02-01T13:51:32;15.43;;;6.45;;
76576;SDS011;65441;44.748;37.600;2023-02-01T13:54:06;14.73;;;6.18;;
76576;SDS011;65441;44.748;37.600;2023-02-01T13:56:51;18.52;;;6.38;;
76576;SDS011;65441;44.748;37.600;2023-02-01T14:06:01;16.08;;;5.93;;
76576;SDS011;65441;44.748;37.600;2023-02-01T14:11:44;17.48;;;6.50;;
76576;SDS011;65441;44.748;37.600;2023-02-01T14:23:16;17.60;;;7.18;;
76576;SDS011;65441;44.748;37.600;2023-02-01T14:28:44;14.88;;;6.10;;
76576;SDS011;65441;44.748;37.600;2023-02-01T14:31:35;19.05;;;6.65;;
76576;SDS011;65441;44.748;37.600;2023-02-01T14:34:11;15.73;;;5.95;;
76576;SDS011;65441;44.748;37.600;2023-02-01T14:36:48;16.80;;;6.80;;
76576;SDS011;65441;44.748;37.600;2023-02-01T14:39:25;15.05;;;6.20;;
76576;SDS011;65441;44.748;37.600;2023-02-01T14:42:02;15.60;;;6.72;;
76576;SDS011;65441;44.748;37.600;2023-02-01T14:44:34;15.57;;;5.78;;
76576;SDS011;65441;44.748;37.600;2023-02-01T14:47:08;17.00;;;7.07;;
76576;SDS011;65441;44.748;37.600;2023-02-01T14:49:56;18.08;;;6.95;;
76576;SDS011;65441;44.748;37.600;2023-02-01T14:52:34;18.63;;;6.97;;
76576;SDS011;65441;44.748;37.600;2023-02-01T14:55:11;19.17;;;7.10;;
76576;SDS011;65441;44.748;37.600;2023-02-01T14:57:50;16.98;;;7.07;;
76576;SDS011;65441;44.748;37.600;2023-02-01T15:00:27;18.70;;;7.35;;
76576;SDS011;65441;44.748;37.600;2023-02-01T15:03:15;17.65;;;6.05;;
76576;SDS011;65441;44.748;37.600;2023-02-01T15:05:57;18.30;;;7.05;;
76576;SDS011;65441;44.748;37.600;2023-02-01T15:08:33;23.65;;;8.13;;
76576;SDS011;65441;44.748;37.600;2023-02-01T15:11:14;19.63;;;8.18;;
76576;SDS011;65441;44.748;37.600;2023-02-01T15:16:24;16.58;;;6.50;;
76576;SDS011;65441;44.748;37.600;2023-02-01T15:19:08;18.85;;;7.28;;
76576;SDS011;65441;44.748;37.600;2023-02-01T15:21:45;21.27;;;7.53;;
76576;SDS011;65441;44.748;37.600;2023-02-01T15:24:19;21.73;;;7.85;;
76576;SDS011;65441;44.748;37.600;2023-02-01T15:26:52;21.35;;;7.05;;
76576;SDS011;65441;44.748;37.600;2023-02-01T15:29:26;21.70;;;7.95;;
76576;SDS011;65441;44.748;37.600;2023-02-01T15:32:01;19.35;;;7.15;;
76576;SDS011;65441;44.748;37.600;2023-02-01T15:34:46;19.90;;;6.70;;
76576;SDS011;65441;44.748;37.600;2023-02-01T15:37:20;20.52;;;8.05;;
76576;SDS011;65441;44.748;37.600;2023-02-01T15:40:18;21.42;;;7.85;;
76576;SDS011;65441;44.748;37.600;2023-02-01T15:42:53;17.17;;;6.05;;
76576;SDS011;65441;44.748;37.600;2023-02-01T15:45:28;15.48;;;5.35;;
76576;SDS011;65441;44.748;37.600;2023-02-01T15:48:03;15.55;;;5.93;;
76576;SDS011;65441;44.748;37.600;2023-02-01T15:50:41;16.77;;;5.78;;
76576;SDS011;65441;44.748;37.600;2023-02-01T15:53:12;14.35;;;5.38;;
76576;SDS011;65441;44.748;37.600;2023-02-01T15:55:47;14.02;;;5.95;;
76576;SDS011;65441;44.748;37.600;2023-02-01T15:58:28;13.43;;;5.05;;
76576;SDS011;65441;44.748;37.600;2023-02-01T16:01:06;15.95;;;5.95;;
76576;SDS011;65441;44.748;37.600;2023-02-01T16:03:44;17.33;;;6.07;;